sensor_id;sensor_type;location;lat;lon;timestamp;temperature;humidity
9403;DHT22;4741;49.834;10.740;2024-03-25T00:01:54;4.70;99.90
9403;DHT22;4741;49.834;10.740;2024-03-25T00:04:20;4.10;99.90
9403;DHT22;4741;49.834;10.740;2024-03-25T00:06:48;4.70;99.90
9403;DHT22;4741;49.834;10.740;2024-03-25T00:09:17;4.20;99.90
9403;DHT22;4741;49.834;10.740;2024-03-25T00:11:43;4.90;99.90
9403;DHT22;4741;49.834;10.740;2024-03-25T00:14:09;4.70;99.90
9403;DHT22;4741;49.834;10.740;2024-03-25T00:16:35;4.80;99.90
9403;DHT22;4741;49.834;10.740;2024-03-25T00:19:01;6.30;99.90
9403;DHT22;4741;49.834;10.740;2024-03-25T00:21:27;4.20;99.90
9403;DHT22;4741;49.834;10.740;2024-03-25T00:23:53;6.10;99.90
9403;DHT22;4741;49.834;10.740;2024-03-25T00:26:22;4.00;99.90
9403;DHT22;4741;49.834;10.740;2024-03-25T00:28:48;4.20;99.90
9403;DHT22;4741;49.834;10.740;2024-03-25T00:31:13;4.70;99.90
9403;DHT22;4741;49.834;10.740;2024-03-25T00:33:40;4.30;99.90
9403;DHT22;4741;49.834;10.740;2024-03-25T00:36:09;5.20;99.90
9403;DHT22;4741;49.834;10.740;2024-03-25T00:38:34;4.70;99.90
9403;DHT22;4741;49.834;10.740;2024-03-25T00:41:00;4.00;99.90
9403;DHT22;4741;49.834;10.740;2024-03-25T00:43:26;4.40;99.90
9403;DHT22;4741;49.834;10.740;2024-03-25T00:45:52;4.10;99.90
9403;DHT22;4741;49.834;10.740;2024-03-25T01:01:17;4.40;99.90
9403;DHT22;4741;49.834;10.740;2024-03-25T02:04:21;4.30;99.90
9403;DHT22;4741;49.834;10.740;2024-03-25T02:54:31;4.60;99.90
9403;DHT22;4741;49.834;10.740;2024-03-25T03:19:37;4.40;99.90
9403;DHT22;4741;49.834;10.740;2024-03-25T04:32:42;3.80;99.90
9403;DHT22;4741;49.834;10.740;2024-03-25T04:35:11;4.20;99.90
9403;DHT22;4741;49.834;10.740;2024-03-25T04:37:38;3.90;99.90
9403;DHT22;4741;49.834;10.740;2024-03-25T04:40:03;3.50;99.90
9403;DHT22;4741;49.834;10.740;2024-03-25T04:45:25;4.70;99.90
9403;DHT22;4741;49.834;10.740;2024-03-25T04:47:53;3.40;99.90
9403;DHT22;4741;49.834;10.740;2024-03-25T04:50:19;4.80;99.90
9403;DHT22;4741;49.834;10.740;2024-03-25T04:52:44;3.60;99.90
9403;DHT22;4741;49.834;10.740;2024-03-25T04:55:10;3.70;99.90
9403;DHT22;4741;49.834;10.740;2024-03-25T04:57:36;3.30;99.90
9403;DHT22;4741;49.834;10.740;2024-03-25T05:00:02;3.50;99.90
9403;DHT22;4741;49.834;10.740;2024-03-25T05:02:28;4.30;99.90
9403;DHT22;4741;49.834;10.740;2024-03-25T05:04:57;5.70;99.90
9403;DHT22;4741;49.834;10.740;2024-03-25T05:07:26;5.40;99.90
9403;DHT22;4741;49.834;10.740;2024-03-25T05:09:51;3.60;99.90
9403;DHT22;4741;49.834;10.740;2024-03-25T05:12:17;5.50;99.90
9403;DHT22;4741;49.834;10.740;2024-03-25T05:14:46;6.10;99.90
9403;DHT22;4741;49.834;10.740;2024-03-25T05:17:15;3.60;99.90
9403;DHT22;4741;49.834;10.740;2024-03-25T05:19:52;3.90;99.90
9403;DHT22;4741;49.834;10.740;2024-03-25T05:22:20;4.50;99.90
9403;DHT22;4741;49.834;10.740;2024-03-25T05:24:49;4.00;99.90
9403;DHT22;4741;49.834;10.740;2024-03-25T05:27:17;3.70;99.90
9403;DHT22;4741;49.834;10.740;2024-03-25T05:29:46;3.20;99.90
9403;DHT22;4741;49.834;10.740;2024-03-25T05:32:17;4.60;99.90
9403;DHT22;4741;49.834;10.740;2024-03-25T05:34:51;5.80;99.90
9403;DHT22;4741;49.834;10.740;2024-03-25T05:37:17;3.60;99.90
9403;DHT22;4741;49.834;10.740;2024-03-25T05:39:42;3.60;99.90
9403;DHT22;4741;49.834;10.740;2024-03-25T05:42:08;6.40;99.90
9403;DHT22;4741;49.834;10.740;2024-03-25T05:44:34;3.50;99.90
9403;DHT22;4741;49.834;10.740;2024-03-25T05:47:00;6.10;99.90
9403;DHT22;4741;49.834;10.740;2024-03-25T05:49:25;5.70;99.90
9403;DHT22;4741;49.834;10.740;2024-03-25T05:51:51;3.20;99.90
9403;DHT22;4741;49.834;10.740;2024-03-25T05:54:20;4.80;99.90
9403;DHT22;4741;49.834;10.740;2024-03-25T05:56:46;3.60;99.90
9403;DHT22;4741;49.834;10.740;2024-03-25T05:59:12;3.70;99.90
9403;DHT22;4741;49.834;10.740;2024-03-25T06:01:37;3.50;99.90
9403;DHT22;4741;49.834;10.740;2024-03-25T06:04:07;5.00;99.90
9403;DHT22;4741;49.834;10.740;2024-03-25T06:06:33;4.50;99.90
9403;DHT22;4741;49.834;10.740;2024-03-25T06:08:58;3.20;99.90
9403;DHT22;4741;49.834;10.740;2024-03-25T06:11:24;3.40;99.90
9403;DHT22;4741;49.834;10.740;2024-03-25T06:13:50;3.90;99.90
9403;DHT22;4741;49.834;10.740;2024-03-25T06:16:16;3.90;99.90
9403;DHT22;4741;49.834;10.740;2024-03-25T06:18:42;4.80;99.90
9403;DHT22;4741;49.834;10.740;2024-03-25T06:21:08;5.80;99.90
9403;DHT22;4741;49.834;10.740;2024-03-25T06:23:33;3.60;99.90
9403;DHT22;4741;49.834;10.740;2024-03-25T06:26:04;5.50;99.90
9403;DHT22;4741;49.834;10.740;2024-03-25T06:28:31;5.00;99.90
9403;DHT22;4741;49.834;10.740;2024-03-25T06:30:57;6.10;99.90
9403;DHT22;4741;49.834;10.740;2024-03-25T06:33:42;4.40;99.90
9403;DHT22;4741;49.834;10.740;2024-03-25T06:36:26;5.40;99.90
9403;DHT22;4741;49.834;10.740;2024-03-25T06:38:52;4.30;99.90
9403;DHT22;4741;49.834;10.740;2024-03-25T06:41:17;4.30;99.90
9403;DHT22;4741;49.834;10.740;2024-03-25T06:43:44;4.40;99.90
9403;DHT22;4741;49.834;10.740;2024-03-25T06:46:10;4.40;99.90
9403;DHT22;4741;49.834;10.740;2024-03-25T06:48:35;3.90;99.90
9403;DHT22;4741;49.834;10.740;2024-03-25T06:51:02;4.20;99.90
9403;DHT22;4741;49.834;10.740;2024-03-25T06:53:54;5.10;99.90
9403;DHT22;4741;49.834;10.740;2024-03-25T06:56:46;5.00;99.90
9403;DHT22;4741;49.834;10.740;2024-03-25T09:12:32;7.90;99.90
9403;DHT22;4741;49.834;10.740;2024-03-25T18:31:10;6.30;99.90
9403;DHT22;4741;49.834;10.740;2024-03-25T18:33:40;6.30;99.90
9403;DHT22;4741;49.834;10.740;2024-03-25T18:36:07;6.20;99.90
9403;DHT22;4741;49.834;10.740;2024-03-25T18:38:34;6.10;99.90
9403;DHT22;4741;49.834;10.740;2024-03-25T18:43:27;5.80;99.90
9403;DHT22;4741;49.834;10.740;2024-03-25T18:45:53;6.60;99.90
9403;DHT22;4741;49.834;10.740;2024-03-25T18:48:20;5.70;99.90
9403;DHT22;4741;49.834;10.740;2024-03-25T18:50:46;5.50;99.90
9403;DHT22;4741;49.834;10.740;2024-03-25T18:53:12;5.30;99.90
9403;DHT22;4741;49.834;10.740;2024-03-25T18:55:38;5.40;99.90
9403;DHT22;4741;49.834;10.740;2024-03-25T18:58:09;5.30;99.90
9403;DHT22;4741;49.834;10.740;2024-03-25T19:30:10;4.10;99.90
9403;DHT22;4741;49.834;10.740;2024-03-25T19:32:36;4.10;99.90
9403;DHT22;4741;49.834;10.740;2024-03-25T19:35:05;4.10;99.90
9403;DHT22;4741;49.834;10.740;2024-03-25T19:37:32;4.00;99.90
9403;DHT22;4741;49.834;10.740;2024-03-25T19:40:03;4.50;99.90
9403;DHT22;4741;49.834;10.740;2024-03-25T19:42:29;3.90;99.90
9403;DHT22;4741;49.834;10.740;2024-03-25T19:44:56;3.80;99.90
9403;DHT22;4741;49.834;10.740;2024-03-25T19:47:22;3.60;99.90
9403;DHT22;4741;49.834;10.740;2024-03-25T19:49:47;3.60;99.90
9403;DHT22;4741;49.834;10.740;2024-03-25T19:52:14;3.60;99.90
9403;DHT22;4741;49.834;10.740;2024-03-25T19:54:42;3.40;99.90
9403;DHT22;4741;49.834;10.740;2024-03-25T19:57:09;3.00;99.90
9403;DHT22;4741;49.834;10.740;2024-03-25T19:59:39;3.20;99.90
9403;DHT22;4741;49.834;10.740;2024-03-25T20:02:05;3.30;99.90
9403;DHT22;4741;49.834;10.740;2024-03-25T20:04:33;3.30;99.90
9403;DHT22;4741;49.834;10.740;2024-03-25T20:06:59;3.40;99.90
9403;DHT22;4741;49.834;10.740;2024-03-25T20:09:24;3.30;99.90
9403;DHT22;4741;49.834;10.740;2024-03-25T20:11:53;3.10;99.90
9403;DHT22;4741;49.834;10.740;2024-03-25T20:14:20;2.70;99.90
9403;DHT22;4741;49.834;10.740;2024-03-25T20:16:47;2.70;99.90
9403;DHT22;4741;49.834;10.740;2024-03-25T20:21:46;2.60;99.90
9403;DHT22;4741;49.834;10.740;2024-03-25T20:24:12;2.70;99.90
9403;DHT22;4741;49.834;10.740;2024-03-25T20:26:39;2.70;99.90
9403;DHT22;4741;49.834;10.740;2024-03-25T20:31:32;2.40;99.90
9403;DHT22;4741;49.834;10.740;2024-03-25T20:33:59;2.60;99.90
9403;DHT22;4741;49.834;10.740;2024-03-25T20:36:24;2.70;99.90
9403;DHT22;4741;49.834;10.740;2024-03-25T20:38:50;2.00;99.90
9403;DHT22;4741;49.834;10.740;2024-03-25T20:41:16;1.80;99.90
9403;DHT22;4741;49.834;10.740;2024-03-25T20:43:44;1.70;99.90
9403;DHT22;4741;49.834;10.740;2024-03-25T20:46:10;2.00;99.90
9403;DHT22;4741;49.834;10.740;2024-03-25T20:48:38;2.10;99.90
9403;DHT22;4741;49.834;10.740;2024-03-25T20:51:04;2.20;99.90
9403;DHT22;4741;49.834;10.740;2024-03-25T20:53:30;2.20;99.90
9403;DHT22;4741;49.834;10.740;2024-03-25T20:55:56;2.20;99.90
9403;DHT22;4741;49.834;10.740;2024-03-25T20:58:21;2.80;99.90
9403;DHT22;4741;49.834;10.740;2024-03-25T21:00:47;2.10;99.90
9403;DHT22;4741;49.834;10.740;2024-03-25T21:03:13;2.00;99.90
9403;DHT22;4741;49.834;10.740;2024-03-25T21:05:39;2.10;99.90
9403;DHT22;4741;49.834;10.740;2024-03-25T21:08:04;2.00;99.90
9403;DHT22;4741;49.834;10.740;2024-03-25T21:10:30;1.90;99.90
9403;DHT22;4741;49.834;10.740;2024-03-25T21:12:57;1.80;99.90
9403;DHT22;4741;49.834;10.740;2024-03-25T21:15:22;1.90;99.90
9403;DHT22;4741;49.834;10.740;2024-03-25T21:17:48;1.90;99.90
9403;DHT22;4741;49.834;10.740;2024-03-25T21:20:14;1.80;99.90
9403;DHT22;4741;49.834;10.740;2024-03-25T21:22:40;2.60;99.90
9403;DHT22;4741;49.834;10.740;2024-03-25T21:25:06;1.50;99.90
9403;DHT22;4741;49.834;10.740;2024-03-25T21:27:32;1.30;99.90
9403;DHT22;4741;49.834;10.740;2024-03-25T21:29:58;1.20;99.90
9403;DHT22;4741;49.834;10.740;2024-03-25T21:32:24;1.00;99.90
9403;DHT22;4741;49.834;10.740;2024-03-25T21:34:52;0.90;99.90
9403;DHT22;4741;49.834;10.740;2024-03-25T21:37:19;0.90;99.90
9403;DHT22;4741;49.834;10.740;2024-03-25T21:39:44;1.00;99.90
9403;DHT22;4741;49.834;10.740;2024-03-25T21:42:10;1.20;99.90
9403;DHT22;4741;49.834;10.740;2024-03-25T21:44:36;1.10;99.90
9403;DHT22;4741;49.834;10.740;2024-03-25T21:47:02;1.20;99.90
9403;DHT22;4741;49.834;10.740;2024-03-25T21:49:28;1.20;99.90
9403;DHT22;4741;49.834;10.740;2024-03-25T21:51:54;1.30;99.90
9403;DHT22;4741;49.834;10.740;2024-03-25T21:54:19;1.20;99.90
9403;DHT22;4741;49.834;10.740;2024-03-25T21:56:45;1.10;99.90
9403;DHT22;4741;49.834;10.740;2024-03-25T21:59:11;0.90;99.90
9403;DHT22;4741;49.834;10.740;2024-03-25T22:01:58;0.90;99.90
9403;DHT22;4741;49.834;10.740;2024-03-25T22:04:24;1.00;99.90
9403;DHT22;4741;49.834;10.740;2024-03-25T22:06:51;1.10;99.90
9403;DHT22;4741;49.834;10.740;2024-03-25T22:09:17;0.80;99.90
9403;DHT22;4741;49.834;10.740;2024-03-25T22:11:43;0.90;99.90
9403;DHT22;4741;49.834;10.740;2024-03-25T22:14:08;0.80;99.90
9403;DHT22;4741;49.834;10.740;2024-03-25T22:16:34;0.70;99.90
9403;DHT22;4741;49.834;10.740;2024-03-25T22:19:00;1.00;99.90
9403;DHT22;4741;49.834;10.740;2024-03-25T22:21:26;1.00;99.90
9403;DHT22;4741;49.834;10.740;2024-03-25T22:23:51;0.80;99.90
9403;DHT22;4741;49.834;10.740;2024-03-25T22:26:17;0.50;99.90
9403;DHT22;4741;49.834;10.740;2024-03-25T22:28:43;0.30;99.90
9403;DHT22;4741;49.834;10.740;2024-03-25T22:31:09;0.40;99.90
9403;DHT22;4741;49.834;10.740;2024-03-25T22:33:34;0.50;99.90
9403;DHT22;4741;49.834;10.740;2024-03-25T22:38:29;0.20;99.90
9403;DHT22;4741;49.834;10.740;2024-03-25T22:43:25;0.20;99.90
9403;DHT22;4741;49.834;10.740;2024-03-25T22:45:52;0.40;99.90
9403;DHT22;4741;49.834;10.740;2024-03-25T22:48:18;0.50;99.90
9403;DHT22;4741;49.834;10.740;2024-03-25T22:50:57;0.50;99.90
9403;DHT22;4741;49.834;10.740;2024-03-25T22:53:23;0.50;99.90
9403;DHT22;4741;49.834;10.740;2024-03-25T22:55:58;0.40;99.90
9403;DHT22;4741;49.834;10.740;2024-03-25T22:58:24;0.40;99.90
9403;DHT22;4741;49.834;10.740;2024-03-25T23:00:50;1.10;99.90
9403;DHT22;4741;49.834;10.740;2024-03-25T23:03:17;0.50;99.90
9403;DHT22;4741;49.834;10.740;2024-03-25T23:05:42;1.10;99.90
9403;DHT22;4741;49.834;10.740;2024-03-25T23:08:08;0.40;99.90
9403;DHT22;4741;49.834;10.740;2024-03-25T23:13:00;0.10;99.90
9403;DHT22;4741;49.834;10.740;2024-03-25T23:15:25;0.10;99.90
9403;DHT22;4741;49.834;10.740;2024-03-25T23:17:51;0.30;99.90
9403;DHT22;4741;49.834;10.740;2024-03-25T23:20:17;0.30;99.90
9403;DHT22;4741;49.834;10.740;2024-03-25T23:22:43;0.10;99.90
9403;DHT22;4741;49.834;10.740;2024-03-25T23:25:09;0.20;99.90
9403;DHT22;4741;49.834;10.740;2024-03-25T23:27:34;0.30;99.90
9403;DHT22;4741;49.834;10.740;2024-03-25T23:30:00;0.10;99.90
9403;DHT22;4741;49.834;10.740;2024-03-25T23:32:26;0.20;99.90
9403;DHT22;4741;49.834;10.740;2024-03-25T23:34:52;-0.10;99.90
9403;DHT22;4741;49.834;10.740;2024-03-25T23:37:18;-0.40;99.90
9403;DHT22;4741;49.834;10.740;2024-03-25T23:39:44;-0.20;99.90
9403;DHT22;4741;49.834;10.740;2024-03-25T23:42:11;-0.20;99.90
9403;DHT22;4741;49.834;10.740;2024-03-25T23:44:36;-0.10;99.90
9403;DHT22;4741;49.834;10.740;2024-03-25T23:47:02;-0.20;99.90
9403;DHT22;4741;49.834;10.740;2024-03-25T23:49:30;0.10;99.90
9403;DHT22;4741;49.834;10.740;2024-03-25T23:51:55;0.40;99.90
9403;DHT22;4741;49.834;10.740;2024-03-25T23:54:21;-0.20;99.90
9403;DHT22;4741;49.834;10.740;2024-03-25T23:56:47;-0.10;99.90
9403;DHT22;4741;49.834;10.740;2024-03-25T23:59:14;1.40;99.90
